Time;durP1;ratioP1;P1;durP2;ratioP2;P2;SDS_P1;SDS_P2;PMS_P1;PMS_P2;Temp;Humidity;BMP_temperature;BMP_pressure;BME280_temperature;BME280_humidity;BME280_pressure;Samples;Min_cycle;Max_cycle;Signal;HPM_P1;HPM_P2
2023/05/22 00:00:45;;;;;;;8.68;7.85;;;19.50;70.50;;;;;;10226284;28;20031;-55
2023/05/22 00:05:47;;;;;;;11.25;9.40;;;19.50;70.60;;;;;;10227980;28;20513;-55
2023/05/22 00:10:47;;;;;;;10.48;9.40;;;19.50;70.80;;;;;;10243382;29;20081;-56
2023/05/22 00:15:48;;;;;;;8.88;7.97;;;19.50;70.70;;;;;;10241865;29;20089;-55
2023/05/22 00:20:49;;;;;;;9.63;8.50;;;19.40;70.60;;;;;;10243136;29;20070;-55
2023/05/22 00:25:50;;;;;;;9.98;8.32;;;19.50;70.80;;;;;;10242911;28;20103;-56
2023/05/22 00:30:51;;;;;;;10.77;9.68;;;19.40;70.60;;;;;;10243150;29;20118;-55
2023/05/22 00:35:51;;;;;;;10.45;8.30;;;19.50;70.70;;;;;;10232456;28;20035;-55
2023/05/22 00:40:52;;;;;;;10.35;8.63;;;19.50;70.60;;;;;;10242911;28;20050;-54
2023/05/22 00:45:53;;;;;;;10.50;8.63;;;19.50;70.60;;;;;;10242397;29;20046;-55
2023/05/22 00:50:56;;;;;;;9.52;8.23;;;19.40;70.50;;;;;;10228323;28;20019;-55
2023/05/22 00:55:58;;;;;;;9.70;8.55;;;19.50;70.50;;;;;;10241401;28;20035;-57
2023/05/22 01:00:59;;;;;;;9.00;7.95;;;19.50;70.50;;;;;;10240962;28;20034;-55
2023/05/22 01:06:00;;;;;;;11.63;8.77;;;19.40;70.50;;;;;;10241179;28;20031;-55
2023/05/22 01:11:12;;;;;;;11.05;8.80;;;19.50;70.50;;;;;;10241067;28;20481;-55
2023/05/22 01:16:36;;;;;;;11.38;8.63;;;19.40;70.50;;;;;;10249069;28;20048;-56
2023/05/22 01:22:04;;;;;;;9.50;8.23;;;19.40;70.50;;;;;;10247963;29;20031;-55
2023/05/22 01:27:57;;;;;;;9.73;8.43;;;19.40;70.50;;;;;;10247665;29;20035;-54
2023/05/22 01:32:58;;;;;;;12.88;8.95;;;19.40;70.50;;;;;;10247588;29;20028;-55
2023/05/22 01:38:00;;;;;;;10.45;9.23;;;19.40;70.40;;;;;;10247206;29;20027;-56
2023/05/22 01:43:01;;;;;;;13.27;9.48;;;19.40;70.40;;;;;;10248021;28;20490;-54
2023/05/22 01:48:02;;;;;;;9.40;7.90;;;19.40;70.40;;;;;;10247819;28;20020;-55
2023/05/22 01:53:15;;;;;;;10.13;9.05;;;19.40;70.40;;;;;;10247539;29;20401;-56
2023/05/22 01:58:38;;;;;;;10.07;8.00;;;19.40;70.40;;;;;;10247426;28;20070;-55
2023/05/22 02:03:39;;;;;;;9.68;8.68;;;19.40;70.30;;;;;;10246047;29;20027;-55
2023/05/22 02:08:41;;;;;;;9.85;8.32;;;19.40;70.30;;;;;;10229641;28;20151;-54
2023/05/22 02:13:42;;;;;;;9.88;8.85;;;19.40;70.30;;;;;;10229354;29;20051;-55
2023/05/22 02:18:43;;;;;;;10.95;8.27;;;19.40;70.90;;;;;;10229429;28;20059;-55
2023/05/22 02:23:43;;;;;;;9.30;7.40;;;19.40;70.30;;;;;;10228013;28;20094;-54
2023/05/22 02:28:44;;;;;;;10.68;8.90;;;19.30;70.20;;;;;;10246314;29;20505;-55
2023/05/22 02:33:45;;;;;;;8.80;7.93;;;19.40;70.30;;;;;;10244555;28;20036;-54
2023/05/22 02:38:45;;;;;;;10.60;8.23;;;19.40;70.30;;;;;;10236221;28;20102;-55
2023/05/22 02:43:46;;;;;;;10.40;8.27;;;19.40;70.30;;;;;;10244830;29;20760;-54
2023/05/22 02:48:47;;;;;;;9.25;8.10;;;19.40;70.30;;;;;;10244595;28;20387;-55
2023/05/22 02:53:47;;;;;;;11.70;9.15;;;19.40;70.30;;;;;;10246790;28;20031;-54
2023/05/22 02:58:48;;;;;;;10.80;8.60;;;19.30;70.20;;;;;;10227670;28;20016;-55
2023/05/22 03:03:49;;;;;;;9.65;8.50;;;19.30;70.20;;;;;;10244482;28;20086;-56
2023/05/22 03:08:50;;;;;;;8.73;7.80;;;19.30;70.20;;;;;;10244301;28;20051;-61
2023/05/22 03:13:51;;;;;;;9.65;8.65;;;19.30;70.20;;;;;;10243979;28;20047;-54
2023/05/22 03:19:08;;;;;;;8.15;7.15;;;19.30;70.10;;;;;;10227038;29;20015;-55
2023/05/22 03:24:09;;;;;;;9.02;8.13;;;19.30;70.10;;;;;;10226680;29;20046;-55
2023/05/22 03:29:10;;;;;;;8.93;7.82;;;19.30;70.10;;;;;;10241621;29;20047;-55
2023/05/22 03:34:11;;;;;;;8.70;7.80;;;19.30;70.10;;;;;;10243918;28;20787;-56
2023/05/22 03:39:12;;;;;;;9.07;7.20;;;19.30;70.20;;;;;;10251752;28;20015;-53
2023/05/22 03:44:12;;;;;;;8.63;7.30;;;19.30;70.10;;;;;;10244367;28;20111;-54
2023/05/22 03:49:13;;;;;;;9.50;8.00;;;19.30;70.10;;;;;;10244024;29;20050;-56
2023/05/22 03:54:14;;;;;;;9.65;7.68;;;19.30;70.10;;;;;;10226229;29;20036;-56
2023/05/22 03:59:15;;;;;;;8.52;7.57;;;19.30;70.10;;;;;;10242750;29;20099;-55
2023/05/22 04:04:16;;;;;;;10.00;8.27;;;19.30;70.10;;;;;;10246430;28;20024;-55
2023/05/22 04:09:16;;;;;;;10.15;7.88;;;19.30;70.10;;;;;;10235001;29;20699;-55
2023/05/22 04:14:17;;;;;;;8.73;7.93;;;19.20;70.00;;;;;;10242645;29;20049;-55
2023/05/22 04:19:18;;;;;;;8.55;7.30;;;19.30;70.10;;;;;;10225421;29;20893;-56
2023/05/22 04:24:21;;;;;;;8.05;6.78;;;19.20;70.00;;;;;;10240729;28;20422;-56
2023/05/22 04:29:23;;;;;;;8.57;7.70;;;19.20;70.00;;;;;;10224873;28;20031;-55
2023/05/22 04:34:24;;;;;;;9.13;7.32;;;19.20;70.00;;;;;;10242669;28;20090;-55
2023/05/22 04:39:25;;;;;;;10.73;6.68;;;19.30;69.90;;;;;;10224966;28;20466;-54
2023/05/22 04:44:26;;;;;;;13.13;7.60;;;19.30;69.80;;;;;;10242825;28;20035;-53
2023/05/22 04:49:27;;;;;;;12.27;7.57;;;19.40;70.50;;;;;;10235163;28;20114;-54
2023/05/22 04:54:28;;;;;;;10.57;8.27;;;19.50;70.40;;;;;;10233183;28;20539;-54
2023/05/22 04:59:30;;;;;;;19.85;8.52;;;19.50;70.80;;;;;;10250214;28;20059;-54
2023/05/22 05:04:31;;;;;;;16.60;9.68;;;19.50;71.30;;;;;;10250114;28;20102;-54
2023/05/22 05:09:32;;;;;;;22.00;9.18;;;19.60;71.10;;;;;;10249447;29;20030;-54
2023/05/22 05:14:33;;;;;;;23.95;9.35;;;19.50;71.00;;;;;;10249110;28;20051;-55
2023/05/22 05:19:34;;;;;;;19.95;8.80;;;19.50;71.10;;;;;;10231929;28;20102;-54
2023/05/22 05:24:34;;;;;;;13.90;8.10;;;19.50;71.20;;;;;;10214271;28;20103;-49
2023/05/22 05:29:35;;;;;;;13.40;8.50;;;19.40;71.30;;;;;;10240046;28;20051;-56
2023/05/22 07:19:11;;;;;;;14.02;8.02;;;19.50;71.50;;;;;;10562419;27;20394;-47
2023/05/22 07:24:11;;;;;;;10.73;9.02;;;19.70;72.50;;;;;;10495397;28;20494;-47
2023/05/22 07:29:15;;;;;;;9.50;8.20;;;19.60;72.40;;;;;;10473417;28;20132;-50
2023/05/22 07:34:16;;;;;;;13.77;7.95;;;19.70;72.40;;;;;;10480981;28;20049;-51
2023/05/22 07:39:16;;;;;;;17.20;9.75;;;19.70;72.20;;;;;;10478843;28;20033;-50
2023/05/22 07:44:17;;;;;;;12.77;8.63;;;19.70;71.90;;;;;;10478679;28;20115;-50
2023/05/22 07:49:19;;;;;;;9.13;7.68;;;19.80;71.60;;;;;;10478476;28;20025;-50
2023/05/22 07:54:19;;;;;;;11.95;8.18;;;19.80;71.90;;;;;;10478070;28;20025;-48
2023/05/22 07:59:20;;;;;;;11.55;7.82;;;19.80;71.90;;;;;;10477831;28;20149;-47
2023/05/22 08:04:21;;;;;;;10.38;7.85;;;19.80;72.00;;;;;;10477778;28;20119;-50
2023/05/22 08:09:22;;;;;;;11.57;7.60;;;19.80;71.80;;;;;;10477561;28;20027;-48
2023/05/22 08:14:23;;;;;;;10.25;6.88;;;19.80;71.80;;;;;;10477182;28;20535;-47
2023/05/22 08:19:24;;;;;;;9.68;7.55;;;19.80;71.70;;;;;;10452824;28;20380;-45
2023/05/22 08:24:29;;;;;;;8.60;7.78;;;19.80;71.70;;;;;;10449907;28;20341;-47
2023/05/22 08:29:30;;;;;;;8.55;7.10;;;19.80;71.60;;;;;;10437088;28;20016;-48
2023/05/22 08:34:31;;;;;;;9.60;7.18;;;19.80;71.60;;;;;;10454634;28;20028;-47
2023/05/22 08:39:32;;;;;;;8.68;6.88;;;19.90;71.60;;;;;;10449987;28;20013;-45
2023/05/22 08:44:33;;;;;;;12.65;8.13;;;19.80;71.50;;;;;;10448944;28;20119;-47
2023/05/22 08:49:34;;;;;;;8.35;6.78;;;19.90;71.40;;;;;;10447351;28;20021;-47
2023/05/22 08:54:37;;;;;;;9.52;7.50;;;19.90;71.40;;;;;;10447952;28;20060;-45
2023/05/22 08:59:40;;;;;;;10.48;7.03;;;19.90;71.40;;;;;;10448042;28;20013;-45
2023/05/22 09:04:40;;;;;;;9.60;7.53;;;19.90;71.10;;;;;;10448371;28;20341;-49
2023/05/22 09:09:41;;;;;;;11.35;7.75;;;19.90;71.20;;;;;;10448492;28;20013;-49
2023/05/22 09:14:43;;;;;;;9.32;7.30;;;19.90;71.10;;;;;;10446202;28;20048;-48
2023/05/22 09:19:44;;;;;;;9.77;7.68;;;19.90;71.20;;;;;;10445271;28;20037;-45
2023/05/22 09:24:46;;;;;;;8.57;7.43;;;19.90;71.30;;;;;;10447167;28;20021;-47
2023/05/22 09:29:51;;;;;;;10.07;8.02;;;19.90;71.20;;;;;;10446314;28;20448;-44
2023/05/22 09:34:51;;;;;;;9.27;7.05;;;20.00;71.00;;;;;;10450954;28;20024;-44
2023/05/22 09:39:53;;;;;;;8.02;7.20;;;20.00;71.00;;;;;;10446785;28;20056;-45
2023/05/22 09:44:54;;;;;;;10.27;7.78;;;20.00;71.00;;;;;;10446161;28;20079;-46
2023/05/22 09:49:57;;;;;;;11.95;8.13;;;20.00;71.40;;;;;;10446598;28;20494;-46
2023/05/22 09:55:07;;;;;;;9.30;7.63;;;20.10;71.40;;;;;;10446218;28;20033;-46
2023/05/22 10:00:16;;;;;;;10.25;7.70;;;20.10;71.10;;;;;;10445731;28;20033;-41
2023/05/22 10:05:20;;;;;;;13.52;8.63;;;20.20;71.10;;;;;;10445469;28;20395;-46
2023/05/22 10:10:24;;;;;;;10.85;8.20;;;20.20;71.50;;;;;;10447069;28;20017;-46
2023/05/22 10:15:25;;;;;;;9.40;7.82;;;20.10;71.60;;;;;;10447226;28;20432;-52
2023/05/22 10:20:27;;;;;;;10.02;8.07;;;20.10;71.80;;;;;;10445485;28;20024;-47
2023/05/22 10:25:29;;;;;;;10.68;8.10;;;20.10;71.70;;;;;;10444902;28;20271;-46
2023/05/22 10:30:54;;;;;;;11.60;8.90;;;20.10;71.80;;;;;;10432701;28;20104;-45
2023/05/22 10:36:01;;;;;;;11.18;9.68;;;20.10;71.80;;;;;;10447263;28;20021;-47
2023/05/22 10:41:03;;;;;;;13.82;9.00;;;20.20;72.90;;;;;;10440284;28;20031;-46
2023/05/22 10:46:05;;;;;;;11.38;8.20;;;20.40;76.00;;;;;;10437399;28;20061;-49
2023/05/22 10:51:07;;;;;;;10.10;8.25;;;20.30;73.30;;;;;;10446332;28;20107;-47
2023/05/22 10:56:11;;;;;;;9.88;8.30;;;20.30;71.70;;;;;;10445347;28;20025;-48
2023/05/22 11:01:19;;;;;;;10.43;8.30;;;20.30;72.40;;;;;;10420043;28;20091;-47
2023/05/22 11:06:44;;;;;;;8.73;7.78;;;20.30;73.10;;;;;;10439902;28;20087;-47
2023/05/22 11:11:46;;;;;;;9.40;8.18;;;20.30;73.00;;;;;;10445318;28;20036;-49
2023/05/22 11:16:47;;;;;;;8.98;7.78;;;20.40;72.90;;;;;;10445456;28;20090;-46
2023/05/22 11:21:48;;;;;;;10.32;8.80;;;20.30;73.10;;;;;;10443616;28;20035;-46
2023/05/22 11:27:05;;;;;;;9.07;8.20;;;20.30;72.90;;;;;;10443169;28;20018;-46
2023/05/22 11:32:07;;;;;;;9.75;8.75;;;20.30;72.90;;;;;;10444143;28;20029;-47
2023/05/22 11:37:09;;;;;;;10.43;8.55;;;20.30;73.10;;;;;;10436813;28;20112;-47
2023/05/22 11:42:09;;;;;;;9.65;8.65;;;20.30;72.70;;;;;;10442722;28;20078;-47
2023/05/22 11:47:10;;;;;;;11.80;9.40;;;20.40;72.60;;;;;;10444112;28;20110;-51
2023/05/22 11:52:10;;;;;;;10.93;8.52;;;20.40;72.60;;;;;;10428645;28;20064;-49
2023/05/22 11:57:12;;;;;;;10.68;8.80;;;20.40;72.70;;;;;;10451980;28;20028;-51
2023/05/22 12:02:15;;;;;;;9.13;8.23;;;20.30;72.70;;;;;;10438539;28;20044;-45
2023/05/22 12:07:16;;;;;;;11.13;8.85;;;20.30;72.60;;;;;;10449547;28;20138;-49
2023/05/22 12:12:17;;;;;;;9.48;8.45;;;20.30;72.60;;;;;;10449685;28;20112;-50
2023/05/22 12:17:18;;;;;;;10.60;8.60;;;20.30;72.50;;;;;;10448959;28;20033;-48
2023/05/22 12:22:21;;;;;;;9.95;8.60;;;20.40;72.40;;;;;;10449103;28;20033;-46
2023/05/22 12:27:22;;;;;;;10.57;9.48;;;20.40;72.30;;;;;;10448160;28;20082;-48
2023/05/22 12:32:24;;;;;;;10.23;8.07;;;20.50;72.30;;;;;;10448424;28;20047;-45
2023/05/22 12:37:26;;;;;;;9.65;8.27;;;20.50;72.10;;;;;;10435625;28;20079;-45
2023/05/22 12:42:27;;;;;;;9.07;8.27;;;20.50;72.00;;;;;;10446474;28;20384;-49
2023/05/22 12:47:28;;;;;;;8.95;8.15;;;20.60;71.90;;;;;;10448209;28;20044;-47
2023/05/22 12:52:29;;;;;;;10.20;8.70;;;20.60;71.90;;;;;;10448261;28;20104;-45
2023/05/22 12:57:29;;;;;;;9.57;8.55;;;20.60;71.80;;;;;;10447382;28;20060;-45
2023/05/22 13:02:30;;;;;;;8.60;7.60;;;20.70;71.80;;;;;;10448122;28;20142;-46
2023/05/22 13:07:31;;;;;;;10.77;8.73;;;20.70;71.70;;;;;;10447803;28;20531;-49
2023/05/22 13:12:32;;;;;;;11.77;8.70;;;20.70;71.60;;;;;;10448364;28;20108;-45
2023/05/22 13:17:33;;;;;;;9.52;8.38;;;20.70;71.70;;;;;;10418854;28;20041;-49
2023/05/22 13:22:33;;;;;;;9.68;8.68;;;20.70;71.40;;;;;;10446189;28;20029;-50
2023/05/22 13:27:34;;;;;;;11.82;8.98;;;20.70;71.50;;;;;;10429644;28;20033;-50
2023/05/22 13:32:35;;;;;;;9.05;7.97;;;20.70;71.40;;;;;;10446374;28;20028;-47
2023/05/22 13:37:36;;;;;;;10.25;8.93;;;20.70;71.40;;;;;;10448211;28;20031;-47
2023/05/22 13:42:37;;;;;;;10.38;9.38;;;20.70;71.40;;;;;;10445846;28;20029;-49
2023/05/22 13:47:38;;;;;;;10.30;8.00;;;20.70;71.60;;;;;;10445875;28;20017;-47
2023/05/22 13:52:39;;;;;;;10.18;9.10;;;20.60;71.70;;;;;;10444736;28;20119;-48
2023/05/22 13:57:39;;;;;;;10.05;8.38;;;20.60;71.80;;;;;;10446410;28;20486;-47
2023/05/22 14:02:40;;;;;;;14.75;9.68;;;20.50;71.70;;;;;;10446288;28;20116;-45
2023/05/22 14:07:41;;;;;;;11.40;8.30;;;20.50;72.80;;;;;;10444415;28;20623;-45
2023/05/22 14:12:41;;;;;;;14.35;9.50;;;20.60;72.20;;;;;;10446515;28;20120;-48
2023/05/22 14:17:42;;;;;;;9.60;8.68;;;20.50;72.80;;;;;;10415582;28;20357;-51
2023/05/22 14:22:43;;;;;;;13.02;9.68;;;20.40;72.90;;;;;;10444457;28;20432;-46
2023/05/22 14:27:43;;;;;;;11.45;9.18;;;20.40;72.80;;;;;;10444574;28;20029;-48
2023/05/22 14:32:45;;;;;;;11.82;9.40;;;20.40;72.70;;;;;;10445763;28;20025;-45
2023/05/22 14:37:46;;;;;;;12.38;10.93;;;20.40;72.90;;;;;;10449286;28;20025;-46
2023/05/22 14:42:47;;;;;;;11.70;9.75;;;20.40;73.00;;;;;;10443687;28;20025;-46
2023/05/22 14:47:47;;;;;;;22.02;9.63;;;20.40;73.10;;;;;;10428564;28;20446;-48
2023/05/22 14:52:48;;;;;;;18.20;10.07;;;20.40;73.60;;;;;;10434105;28;20025;-49
2023/05/22 14:57:49;;;;;;;15.65;9.55;;;20.40;73.40;;;;;;10443151;28;20017;-48
2023/05/22 15:02:49;;;;;;;17.25;9.68;;;20.40;73.60;;;;;;10443170;28;20056;-47
2023/05/22 15:07:50;;;;;;;17.70;11.45;;;20.50;73.70;;;;;;10435690;28;20483;-47
2023/05/22 15:12:51;;;;;;;17.98;11.52;;;20.50;73.80;;;;;;10428046;28;20096;-48
2023/05/22 15:17:52;;;;;;;23.17;17.13;;;20.50;74.10;;;;;;10443545;28;20049;-46
2023/05/22 15:22:53;;;;;;;23.02;16.67;;;20.60;74.80;;;;;;10443256;28;20355;-45
2023/05/22 15:27:53;;;;;;;20.58;14.93;;;20.60;74.40;;;;;;10432542;28;20113;-48
2023/05/22 15:32:54;;;;;;;22.45;15.82;;;20.70;74.50;;;;;;10449438;28;20036;-45
2023/05/22 15:37:55;;;;;;;22.98;15.30;;;21.00;76.10;;;;;;10455196;28;20059;-49
2023/05/22 15:42:56;;;;;;;30.08;16.75;;;21.10;75.80;;;;;;10451942;28;20061;-48
2023/05/22 15:47:57;;;;;;;20.63;14.93;;;21.10;76.20;;;;;;10453360;28;20107;-48
2023/05/22 15:52:58;;;;;;;23.42;14.98;;;21.20;76.00;;;;;;10448157;28;20171;-50
2023/05/22 15:58:00;;;;;;;25.88;15.40;;;21.10;75.40;;;;;;10442307;28;20537;-49
2023/05/22 16:03:00;;;;;;;22.60;14.30;;;21.00;75.00;;;;;;10441023;28;20453;-47
2023/05/22 16:08:01;;;;;;;26.73;15.43;;;21.00;75.90;;;;;;10445469;28;20098;-47
2023/05/22 16:13:04;;;;;;;21.63;13.65;;;20.90;74.80;;;;;;10446561;28;20640;-48
2023/05/22 16:18:05;;;;;;;19.00;13.88;;;20.90;74.60;;;;;;10432001;28;20519;-51
2023/05/22 16:23:06;;;;;;;20.55;13.27;;;20.90;74.50;;;;;;10450281;28;20485;-50
2023/05/22 16:28:07;;;;;;;16.90;13.32;;;20.90;74.50;;;;;;10449054;28;20033;-49
2023/05/22 16:33:07;;;;;;;18.50;11.95;;;20.80;74.30;;;;;;10451353;28;20096;-51
2023/05/22 16:38:10;;;;;;;18.27;11.32;;;20.90;74.40;;;;;;10452737;28;20105;-52
2023/05/22 16:43:12;;;;;;;16.77;11.98;;;20.90;74.20;;;;;;10450948;28;20013;-53
2023/05/22 16:48:13;;;;;;;15.80;12.20;;;20.80;74.00;;;;;;10450949;28;20032;-49
2023/05/22 16:53:16;;;;;;;14.20;10.13;;;20.80;74.20;;;;;;10442940;28;20045;-45
2023/05/22 16:58:17;;;;;;;15.13;10.32;;;20.80;74.50;;;;;;10441962;28;20114;-48
2023/05/22 17:03:18;;;;;;;13.57;9.63;;;20.80;73.90;;;;;;10450612;28;20033;-48
2023/05/22 17:08:19;;;;;;;14.75;9.98;;;20.80;74.00;;;;;;10450215;28;20083;-47
2023/05/22 17:13:20;;;;;;;15.10;10.57;;;20.90;73.70;;;;;;10435685;28;20479;-46
2023/05/22 17:18:20;;;;;;;13.65;9.57;;;20.80;73.50;;;;;;10418747;28;20065;-47
2023/05/22 17:23:21;;;;;;;17.05;10.15;;;20.80;73.50;;;;;;10446397;28;20391;-46
2023/05/22 17:28:22;;;;;;;15.55;10.40;;;20.90;73.80;;;;;;10449770;28;20025;-46
2023/05/22 17:33:24;;;;;;;22.23;10.68;;;20.90;73.70;;;;;;10449503;28;20044;-46
2023/05/22 17:38:24;;;;;;;13.32;10.45;;;20.90;73.60;;;;;;10453307;28;20384;-45
2023/05/22 17:43:25;;;;;;;13.52;10.20;;;20.90;73.80;;;;;;10447780;28;20032;-46
2023/05/22 17:48:26;;;;;;;14.07;9.00;;;21.00;74.00;;;;;;10448431;28;20126;-49
2023/05/22 17:53:30;;;;;;;13.45;8.75;;;21.00;74.00;;;;;;10448746;28;20175;-49
2023/05/22 17:58:31;;;;;;;11.25;9.57;;;20.90;73.90;;;;;;10441042;28;20037;-51
2023/05/22 18:03:32;;;;;;;15.85;9.48;;;21.00;74.20;;;;;;10443194;28;20547;-48
2023/05/22 18:08:33;;;;;;;12.57;9.15;;;20.90;74.00;;;;;;10444300;28;20112;-45
2023/05/22 18:13:34;;;;;;;13.02;8.38;;;20.90;74.00;;;;;;10429430;28;20423;-49
2023/05/22 18:18:34;;;;;;;13.85;8.32;;;20.90;73.90;;;;;;10389146;28;20033;-50
2023/05/22 18:23:35;;;;;;;9.75;7.90;;;20.90;73.70;;;;;;10446779;28;20060;-47
2023/05/22 18:28:36;;;;;;;10.80;7.88;;;20.90;73.70;;;;;;10446610;28;20027;-47
2023/05/22 18:33:38;;;;;;;13.00;8.93;;;20.80;73.80;;;;;;10446921;28;20056;-45
2023/05/22 18:38:38;;;;;;;9.73;7.45;;;20.70;74.10;;;;;;10453623;28;20368;-50
2023/05/22 18:43:39;;;;;;;11.45;7.57;;;20.70;73.50;;;;;;10444548;28;20056;-48
2023/05/22 18:48:40;;;;;;;12.43;7.80;;;20.70;73.60;;;;;;10434874;28;20025;-46
2023/05/22 18:53:41;;;;;;;20.42;9.35;;;20.70;73.60;;;;;;10443073;28;20619;-46
2023/05/22 18:58:41;;;;;;;13.38;8.05;;;20.70;73.60;;;;;;10427344;28;20120;-45
2023/05/22 19:03:42;;;;;;;11.73;8.75;;;20.70;73.60;;;;;;10439387;28;20375;-48
2023/05/22 19:08:43;;;;;;;21.50;9.05;;;20.70;73.60;;;;;;10430618;28;20140;-45
2023/05/22 19:13:43;;;;;;;11.52;8.38;;;20.70;73.60;;;;;;10422003;28;20105;-48
2023/05/22 19:18:44;;;;;;;13.43;7.70;;;20.70;73.60;;;;;;10445898;28;20852;-52
2023/05/22 19:23:45;;;;;;;9.63;7.78;;;20.70;73.50;;;;;;10445683;28;20119;-50
2023/05/22 19:28:45;;;;;;;11.48;8.50;;;20.70;73.50;;;;;;10422428;28;20120;-52
2023/05/22 19:33:46;;;;;;;13.52;8.60;;;20.70;73.50;;;;;;10443433;28;20174;-48
2023/05/22 19:38:47;;;;;;;9.77;7.20;;;20.70;73.60;;;;;;10442619;28;20021;-50
2023/05/22 19:43:49;;;;;;;9.80;7.68;;;20.70;73.50;;;;;;10432144;28;20056;-51
2023/05/22 19:48:50;;;;;;;8.80;6.32;;;20.70;73.50;;;;;;10445339;28;20029;-47
2023/05/22 19:53:51;;;;;;;10.85;6.53;;;20.60;73.70;;;;;;10433598;28;20139;-50
2023/05/22 19:58:51;;;;;;;12.32;7.05;;;20.60;73.70;;;;;;10438861;28;20009;-47
2023/05/22 20:03:54;;;;;;;9.85;6.55;;;20.60;73.00;;;;;;10438233;28;20108;-48
2023/05/22 20:08:55;;;;;;;10.77;7.20;;;20.50;72.90;;;;;;10441017;28;20035;-45
2023/05/22 20:13:55;;;;;;;11.18;7.82;;;20.50;73.20;;;;;;10442262;28;20472;-47
2023/05/22 20:18:56;;;;;;;8.55;6.80;;;20.50;73.40;;;;;;10446838;28;20036;-49
2023/05/22 20:23:57;;;;;;;8.30;5.90;;;20.50;73.60;;;;;;10452121;28;20105;-45
2023/05/22 20:28:57;;;;;;;8.32;5.93;;;20.50;73.40;;;;;;10426794;28;20124;-46
2023/05/22 20:34:00;;;;;;;8.02;7.10;;;20.50;73.30;;;;;;10411082;28;20096;-46
2023/05/22 20:39:01;;;;;;;9.32;6.82;;;20.40;73.10;;;;;;10451963;28;20518;-46
2023/05/22 20:44:02;;;;;;;9.82;6.60;;;20.40;73.20;;;;;;10451783;28;20029;-46
2023/05/22 20:49:03;;;;;;;8.73;7.25;;;20.40;73.20;;;;;;10451394;28;20077;-51
2023/05/22 20:54:05;;;;;;;8.68;7.03;;;20.40;73.10;;;;;;10451483;28;20025;-51
2023/05/22 20:59:05;;;;;;;8.32;6.65;;;20.40;73.20;;;;;;10451179;28;20040;-51
2023/05/22 21:04:06;;;;;;;9.25;7.47;;;20.40;73.10;;;;;;10450794;28;20527;-50
2023/05/22 21:09:07;;;;;;;9.65;6.82;;;20.40;73.00;;;;;;10448682;28;20518;-52
2023/05/22 21:14:08;;;;;;;9.75;7.13;;;20.40;72.90;;;;;;10448951;28;20096;-46
2023/05/22 21:19:08;;;;;;;8.45;6.35;;;20.40;73.00;;;;;;10450706;28;20029;-48
2023/05/22 21:24:09;;;;;;;10.07;7.97;;;20.40;72.90;;;;;;10450053;28;20027;-50
2023/05/22 21:29:10;;;;;;;8.73;7.07;;;20.40;72.90;;;;;;10449572;28;20024;-47
2023/05/22 21:34:10;;;;;;;9.80;7.22;;;20.40;72.90;;;;;;10424311;28;20334;-46
2023/05/22 21:39:11;;;;;;;7.57;6.60;;;20.40;72.90;;;;;;10449325;28;20025;-48
2023/05/22 21:44:12;;;;;;;9.02;6.50;;;20.30;72.80;;;;;;10449175;28;20056;-47
2023/05/22 21:49:13;;;;;;;9.70;6.85;;;20.30;72.70;;;;;;10449515;28;20144;-46
2023/05/22 21:54:14;;;;;;;8.15;6.57;;;20.30;72.60;;;;;;10448909;28;20032;-49
2023/05/22 21:59:15;;;;;;;8.18;6.32;;;20.30;72.50;;;;;;10448614;28;20025;-45
2023/05/22 22:04:15;;;;;;;7.82;6.65;;;20.30;72.50;;;;;;10411938;28;20020;-47
2023/05/22 22:09:16;;;;;;;9.57;7.25;;;20.30;72.50;;;;;;10430041;28;20063;-47
2023/05/22 22:14:16;;;;;;;7.47;5.63;;;20.30;72.70;;;;;;10410450;28;20360;-46
2023/05/22 22:19:17;;;;;;;6.97;6.22;;;20.30;72.20;;;;;;10419762;28;20559;-52
2023/05/22 22:24:18;;;;;;;7.70;5.22;;;20.30;72.20;;;;;;10447671;28;20021;-52
2023/05/22 22:29:18;;;;;;;6.57;5.95;;;20.30;72.10;;;;;;10447200;28;20405;-46
2023/05/22 22:34:19;;;;;;;5.63;5.03;;;20.20;72.10;;;;;;10447591;28;20106;-49
2023/05/22 22:39:20;;;;;;;8.32;5.93;;;20.20;72.10;;;;;;10446756;28;20045;-48
2023/05/22 22:44:21;;;;;;;7.53;6.28;;;20.30;72.00;;;;;;10447162;28;20074;-50
2023/05/22 22:49:22;;;;;;;7.32;5.75;;;20.20;71.90;;;;;;10440398;28;20118;-52
2023/05/22 22:54:23;;;;;;;7.00;6.05;;;20.20;71.90;;;;;;10428609;28;20035;-48
2023/05/22 22:59:24;;;;;;;7.10;6.40;;;20.20;71.90;;;;;;10446086;28;20023;-47
2023/05/22 23:04:26;;;;;;;7.80;6.10;;;20.20;71.80;;;;;;10446810;28;20035;-47
2023/05/22 23:09:27;;;;;;;6.95;5.63;;;20.20;71.70;;;;;;10446061;28;20052;-48
2023/05/22 23:14:28;;;;;;;6.80;5.72;;;20.20;71.70;;;;;;10445845;28;20057;-49
2023/05/22 23:19:29;;;;;;;6.28;5.20;;;20.20;71.70;;;;;;10445782;28;20025;-50
2023/05/22 23:24:30;;;;;;;6.65;5.57;;;20.20;71.80;;;;;;10445753;28;20025;-49
2023/05/22 23:29:30;;;;;;;6.53;5.60;;;20.20;71.60;;;;;;10446244;28;20060;-45
2023/05/22 23:34:31;;;;;;;8.02;5.65;;;20.20;71.60;;;;;;10445913;28;20041;-46
2023/05/22 23:39:32;;;;;;;6.32;5.65;;;20.20;71.60;;;;;;10413067;28;20093;-46
2023/05/22 23:44:33;;;;;;;7.45;4.80;;;20.20;71.50;;;;;;10404259;28;20026;-48
2023/05/22 23:49:33;;;;;;;7.07;5.50;;;20.20;71.30;;;;;;10408903;28;20061;-52
2023/05/22 23:54:34;;;;;;;6.03;5.40;;;20.20;71.10;;;;;;10412020;28;20010;-51
2023/05/22 23:59:35;;;;;;;7.28;5.35;;;20.10;71.20;;;;;;10411793;28;20052;-52
